createdAt,value
2019-05-11T00:00:33.578Z,100988.37
2019-05-11T00:03:02.922Z,100986.13
2019-05-11T00:05:32.256Z,100992.24
2019-05-11T00:08:01.600Z,100983.95
2019-05-11T00:10:30.999Z,100982.21
2019-05-11T00:13:00.341Z,100969.14
2019-05-11T00:15:29.668Z,100968.32
2019-05-11T00:17:59.006Z,100963.52
2019-05-11T00:20:28.337Z,100954.80
2019-05-11T00:22:57.665Z,100948.27
2019-05-11T00:25:27.005Z,100942.98
2019-05-11T00:27:56.685Z,100941.72
2019-05-11T00:30:26.290Z,100949.53
2019-05-11T00:32:55.994Z,100946.52
2019-05-11T00:35:25.347Z,100946.52
2019-05-11T00:37:54.663Z,100953.05
2019-05-11T00:40:24.001Z,100956.50
2019-05-11T00:42:53.340Z,100952.62
2019-05-11T00:45:22.689Z,100954.76
2019-05-11T00:47:52.027Z,100946.91
2019-05-11T00:50:36.827Z,100943.90
2019-05-11T00:52:52.408Z,100945.65
2019-05-11T00:55:21.743Z,100938.63
2019-05-11T00:57:51.087Z,100944.72
2019-05-11T01:00:20.971Z,100944.28
2019-05-11T01:02:50.310Z,100938.63
2019-05-11T01:05:19.645Z,100930.34
2019-05-11T01:07:48.979Z,100926.42
2019-05-11T01:10:28.726Z,100924.69
2019-05-11T01:12:50.377Z,100920.76
2019-05-11T01:15:19.780Z,100925.55
2019-05-11T01:17:49.108Z,100923.38
2019-05-11T01:20:18.915Z,100919.02
2019-05-11T01:22:48.254Z,100914.66
2019-05-11T01:25:17.622Z,100909.42
2019-05-11T01:27:46.963Z,100907.67
2019-05-11T01:30:16.472Z,100900.70
2019-05-11T01:32:45.807Z,100907.63
2019-05-11T01:35:15.597Z,100895.80
2019-05-11T01:37:45.000Z,100899.35
2019-05-11T01:40:14.607Z,100899.39
2019-05-11T01:42:44.932Z,100898.95
2019-05-11T01:45:15.382Z,100901.57
2019-05-11T01:47:44.716Z,100892.41
2019-05-11T01:50:15.979Z,100890.20
2019-05-11T01:52:45.359Z,100886.70
2019-05-11T01:55:14.724Z,100888.83
2019-05-11T01:57:44.049Z,100894.50
2019-05-11T02:00:13.717Z,100893.58
2019-05-11T02:02:43.082Z,100901.08
2019-05-11T02:05:28.143Z,100901.52
2019-05-11T02:07:58.666Z,100901.97
2019-05-11T02:10:28.168Z,100898.52
2019-05-11T02:12:57.538Z,100893.28
2019-05-11T02:15:27.040Z,100899.78
2019-05-11T02:17:56.383Z,100897.55
2019-05-11T02:20:25.765Z,100900.64
2019-05-11T02:22:55.174Z,100903.22
2019-05-11T02:25:24.744Z,100901.91
2019-05-11T02:27:54.078Z,100900.64
2019-05-11T02:30:23.413Z,100905.41
2019-05-11T02:32:53.025Z,100909.36
2019-05-11T02:35:22.471Z,100907.19
2019-05-11T02:37:51.809Z,100911.06
2019-05-11T02:40:21.596Z,100908.02
2019-05-11T02:42:51.003Z,100907.63
2019-05-11T02:45:39.187Z,100906.75
2019-05-11T02:48:08.785Z,100904.09
2019-05-11T02:50:39.285Z,100903.21
2019-05-11T02:53:09.169Z,100910.19
2019-05-11T02:55:39.666Z,100903.21
2019-05-11T02:58:10.389Z,100914.16
2019-05-11T03:00:42.321Z,100911.06
2019-05-11T03:03:11.970Z,100909.31
2019-05-11T03:05:41.376Z,100917.59
2019-05-11T03:08:10.881Z,100918.03
2019-05-11T03:10:40.281Z,100920.65
2019-05-11T03:13:10.794Z,100912.36
2019-05-11T03:15:40.475Z,100916.28
2019-05-11T03:18:09.941Z,100907.57
2019-05-11T03:20:39.279Z,100914.98
2019-05-11T03:23:08.679Z,100911.06
2019-05-11T03:25:38.328Z,100911.55
2019-05-11T03:28:07.862Z,100906.75
2019-05-11T03:30:37.631Z,100910.68
2019-05-11T03:33:06.975Z,100904.09
2019-05-11T03:35:36.353Z,100909.31
2019-05-11T03:38:05.725Z,100908.48
2019-05-11T03:40:35.309Z,100910.68
2019-05-11T03:43:04.713Z,100920.27
2019-05-11T03:45:34.064Z,100918.97
2019-05-11T03:48:03.425Z,100913.34
2019-05-11T03:50:33.941Z,100914.20
2019-05-11T03:53:03.447Z,100914.55
2019-05-11T03:55:32.830Z,100917.17
2019-05-11T03:58:02.538Z,100920.70
2019-05-11T04:00:31.923Z,100922.01
2019-05-11T04:03:01.414Z,100922.44
2019-05-11T04:05:30.903Z,100920.26
2019-05-11T04:08:00.244Z,100920.22
2019-05-11T04:10:29.788Z,100914.93
2019-05-11T04:12:59.294Z,100914.93
2019-05-11T04:15:29.018Z,100924.08
2019-05-11T04:17:58.359Z,100915.37
2019-05-11T04:20:28.681Z,100921.52
2019-05-11T04:22:58.407Z,100922.83
2019-05-11T04:25:28.220Z,100915.86
2019-05-11T04:27:57.565Z,100925.88
2019-05-11T04:30:26.934Z,100919.33
2019-05-11T04:32:56.262Z,100925.48
2019-05-11T04:35:25.592Z,100920.70
2019-05-11T04:37:54.936Z,100921.56
2019-05-11T04:40:24.296Z,100920.70
2019-05-11T04:42:55.892Z,100922.45
2019-05-11T04:45:25.053Z,100922.45
2019-05-11T04:47:54.430Z,100930.28
2019-05-11T04:50:23.752Z,100919.78
2019-05-11T04:52:53.145Z,100923.70
2019-05-11T04:55:22.546Z,100921.47
2019-05-11T04:57:51.886Z,100932.37
2019-05-11T05:00:21.286Z,100930.67
2019-05-11T05:02:50.910Z,100936.78
2019-05-11T05:05:20.481Z,100932.91
2019-05-11T05:07:50.660Z,100929.90
2019-05-11T05:10:22.413Z,100929.90
2019-05-11T05:12:53.300Z,100926.81
2019-05-11T05:15:22.497Z,100932.90
2019-05-11T05:17:51.820Z,100939.39
2019-05-11T05:20:21.155Z,100934.98
2019-05-11T05:22:50.776Z,100932.80
2019-05-11T05:25:20.114Z,100937.09
2019-05-11T05:27:49.450Z,100936.23
2019-05-11T05:30:19.467Z,100944.95
2019-05-11T05:32:48.931Z,100941.90
2019-05-11T05:35:18.275Z,100938.84
2019-05-11T05:37:48.643Z,100942.27
2019-05-11T05:40:19.512Z,100945.28
2019-05-11T05:42:48.878Z,100947.00
2019-05-11T05:45:18.283Z,100944.84
2019-05-11T05:47:47.815Z,100944.02
2019-05-11T05:50:17.286Z,100945.77
2019-05-11T05:52:46.624Z,100951.47
2019-05-11T05:55:15.958Z,100941.90
2019-05-11T05:57:45.679Z,100954.16
2019-05-11T06:00:15.675Z,100956.38
2019-05-11T06:02:45.090Z,100957.75
2019-05-11T06:05:14.626Z,100955.63
2019-05-11T06:07:43.972Z,100959.61
2019-05-11T06:10:13.910Z,100956.54
2019-05-11T06:12:43.484Z,100961.41
2019-05-11T06:15:13.185Z,100965.85
2019-05-11T06:17:42.548Z,100965.52
2019-05-11T06:20:12.138Z,100975.21
2019-05-11T06:22:42.788Z,100975.21
2019-05-11T06:25:12.413Z,100976.18
2019-05-11T06:27:41.708Z,100988.05
2019-05-11T06:30:11.212Z,100985.92
2019-05-11T06:32:40.549Z,100982.48
2019-05-11T06:35:09.949Z,100989.84
2019-05-11T06:37:39.284Z,100985.97
2019-05-11T06:40:10.188Z,100994.27
2019-05-11T06:42:39.523Z,100993.48
2019-05-11T06:45:09.702Z,100994.84
2019-05-11T06:47:39.046Z,100998.38
2019-05-11T06:50:09.022Z,100995.84
2019-05-11T06:52:39.441Z,100993.70
2019-05-11T06:55:08.951Z,100995.05
2019-05-11T06:57:38.537Z,100993.78
2019-05-11T07:00:09.658Z,100995.61
2019-05-11T07:02:39.002Z,101000.05
2019-05-11T07:05:08.618Z,100992.70
2019-05-11T07:07:46.920Z,101000.20
2019-05-11T07:10:09.892Z,100994.52
2019-05-11T07:12:39.234Z,100991.98
2019-05-11T07:15:09.620Z,100994.63
2019-05-11T07:17:39.052Z,101003.84
2019-05-11T07:20:09.033Z,101009.59
2019-05-11T07:22:39.470Z,101011.77
2019-05-11T07:25:09.055Z,101014.83
2019-05-11T07:27:38.421Z,101020.52
2019-05-11T07:30:09.580Z,101025.34
2019-05-11T07:32:38.917Z,101022.77
2019-05-11T07:35:09.998Z,101024.55
2019-05-11T07:37:39.351Z,101026.76
2019-05-11T07:40:10.073Z,101022.83
2019-05-11T07:42:39.482Z,101025.01
2019-05-11T07:45:09.506Z,101032.84
2019-05-11T07:47:38.881Z,101036.38
2019-05-11T07:50:10.691Z,101029.78
2019-05-11T07:52:40.064Z,101033.31
2019-05-11T07:55:09.749Z,101034.63
2019-05-11T07:57:39.494Z,101035.56
2019-05-11T08:00:11.152Z,101040.00
2019-05-11T08:02:40.832Z,101036.53
2019-05-11T08:05:10.770Z,101041.83
2019-05-11T08:07:40.141Z,101047.58
2019-05-11T08:10:09.929Z,101045.00
2019-05-11T08:12:39.570Z,101052.05
2019-05-11T08:15:13.650Z,101052.55
2019-05-11T08:17:41.714Z,101053.39
2019-05-11T08:20:11.798Z,101060.83
2019-05-11T08:22:41.236Z,101071.34
2019-05-11T08:25:10.679Z,101067.89
2019-05-11T08:27:40.016Z,101073.61
2019-05-11T08:30:12.743Z,101081.07
2019-05-11T08:32:42.389Z,101086.38
2019-05-11T08:35:11.924Z,101086.34
2019-05-11T08:37:41.262Z,101091.66
2019-05-11T08:40:11.479Z,101085.56
2019-05-11T08:42:40.825Z,101083.45
2019-05-11T08:45:20.522Z,101089.61
2019-05-11T08:47:41.670Z,101088.29
2019-05-11T08:50:15.116Z,101093.58
2019-05-11T08:52:42.932Z,101092.77
2019-05-11T08:55:12.942Z,101095.39
2019-05-11T08:57:42.283Z,101096.32
2019-05-11T09:00:17.978Z,101100.32
2019-05-11T09:02:50.457Z,101109.50
2019-05-11T09:05:18.681Z,101110.41
2019-05-11T09:07:49.316Z,101118.34
2019-05-11T09:10:18.961Z,101121.86
2019-05-11T09:12:48.999Z,101119.67
2019-05-11T09:15:32.728Z,101120.12
2019-05-11T09:17:50.653Z,101131.52
2019-05-11T09:20:19.979Z,101132.41
2019-05-11T09:22:49.346Z,101135.45
2019-05-11T09:25:18.696Z,101146.84
2019-05-11T09:27:49.044Z,101148.17
2019-05-11T09:30:19.427Z,101154.31
2019-05-11T09:32:48.777Z,101157.41
2019-05-11T09:35:18.901Z,101154.33
2019-05-11T09:37:48.641Z,101158.72
2019-05-11T09:40:18.419Z,101155.66
2019-05-11T09:42:48.105Z,101158.33
2019-05-11T09:45:18.665Z,101165.78
2019-05-11T09:47:48.405Z,101171.04
2019-05-11T09:50:18.201Z,101160.94
2019-05-11T09:52:49.004Z,101171.46
2019-05-11T09:55:19.218Z,101178.03
2019-05-11T09:57:48.873Z,101169.24
2019-05-11T10:00:18.677Z,101165.30
2019-05-11T10:02:48.800Z,101171.42
2019-05-11T10:05:19.050Z,101163.91
2019-05-11T10:07:48.645Z,101179.30
2019-05-11T10:10:18.747Z,101177.06
2019-05-11T10:12:52.672Z,101177.48
2019-05-11T10:15:20.764Z,101177.06
2019-05-11T10:17:51.359Z,101177.46
2019-05-11T10:20:20.723Z,101182.26
2019-05-11T10:22:50.080Z,101185.32
2019-05-11T10:25:19.406Z,101202.46
2019-05-11T10:27:49.841Z,101198.94
2019-05-11T10:30:20.823Z,101197.13
2019-05-11T10:32:50.423Z,101197.98
2019-05-11T10:35:19.766Z,101211.12
2019-05-11T10:37:49.559Z,101207.48
2019-05-11T10:40:19.245Z,101209.20
2019-05-11T10:42:49.578Z,101216.59
2019-05-11T10:45:18.922Z,101227.06
2019-05-11T10:47:48.906Z,101215.06
2019-05-11T10:50:19.045Z,101220.64
2019-05-11T10:52:49.312Z,101221.89
2019-05-11T10:55:19.513Z,101226.19
2019-05-11T10:57:49.955Z,101223.84
2019-05-11T11:00:22.170Z,101223.66
2019-05-11T11:02:51.507Z,101231.03
2019-05-11T11:05:20.869Z,101225.75
2019-05-11T11:07:50.231Z,101231.57
2019-05-11T11:10:22.522Z,101236.04
2019-05-11T11:12:51.898Z,101239.98
2019-05-11T11:15:21.646Z,101253.33
2019-05-11T11:17:51.006Z,101250.91
2019-05-11T11:20:20.497Z,101254.92
2019-05-11T11:22:49.836Z,101259.67
2019-05-11T11:25:19.249Z,101254.88
2019-05-11T11:27:48.927Z,101260.14
2019-05-11T11:30:20.151Z,101264.52
2019-05-11T11:32:49.514Z,101266.27
2019-05-11T11:35:19.135Z,101267.52
2019-05-11T11:37:48.492Z,101269.97
2019-05-11T11:40:18.081Z,101268.72
2019-05-11T11:42:47.910Z,101260.66
2019-05-11T11:45:18.305Z,101269.73
2019-05-11T11:47:49.545Z,101283.30
2019-05-11T11:50:19.015Z,101285.16
2019-05-11T11:52:48.355Z,101293.35
2019-05-11T11:55:18.677Z,101300.12
2019-05-11T11:57:50.230Z,101297.59
2019-05-11T12:00:19.863Z,101307.98
2019-05-11T12:02:49.264Z,101309.11
2019-05-11T12:05:18.595Z,101310.77
2019-05-11T12:07:49.020Z,101317.27
2019-05-11T12:10:19.810Z,101324.34
2019-05-11T12:12:49.134Z,101328.62
2019-05-11T12:15:18.468Z,101324.61
2019-05-11T12:17:48.472Z,101330.56
2019-05-11T12:20:19.422Z,101331.84
2019-05-11T12:22:48.761Z,101324.71
2019-05-11T12:25:18.765Z,101330.75
2019-05-11T12:27:49.004Z,101336.59
2019-05-11T12:30:21.230Z,101348.81
2019-05-11T12:32:50.572Z,101349.63
2019-05-11T12:35:19.915Z,101339.48
2019-05-11T12:37:49.271Z,101351.55
2019-05-11T12:40:19.947Z,101347.21
2019-05-11T12:42:49.328Z,101354.80
2019-05-11T12:45:18.854Z,101366.78
2019-05-11T12:47:48.284Z,101366.09
2019-05-11T12:50:18.905Z,101371.33
2019-05-11T12:52:48.213Z,101385.52
2019-05-11T12:55:18.064Z,101398.67
2019-05-11T12:57:48.145Z,101403.55
2019-05-11T13:00:18.804Z,101398.78
2019-05-11T13:02:48.784Z,101406.92
2019-05-11T13:05:18.363Z,101412.27
2019-05-11T13:07:48.668Z,101413.63
2019-05-11T13:10:18.192Z,101423.01
2019-05-11T13:12:49.396Z,101409.75
2019-05-11T13:15:19.011Z,101421.17
2019-05-11T13:17:49.327Z,101419.96
2019-05-11T13:20:18.685Z,101426.39
2019-05-11T13:22:48.882Z,101428.51
2019-05-11T13:25:18.495Z,101436.05
2019-05-11T13:27:49.252Z,101433.73
2019-05-11T13:30:22.759Z,101442.52
2019-05-11T13:32:52.092Z,101442.21
2019-05-11T13:35:21.436Z,101451.84
2019-05-11T13:37:50.826Z,101460.41
2019-05-11T13:40:20.338Z,101459.20
2019-05-11T13:42:49.667Z,101465.59
2019-05-11T13:45:19.013Z,101481.14
2019-05-11T13:47:54.800Z,101485.19
2019-05-11T13:50:19.473Z,101485.67
2019-05-11T13:52:48.812Z,101498.66
2019-05-11T13:55:18.399Z,101495.59
2019-05-11T13:57:48.572Z,101496.59
2019-05-11T14:00:19.167Z,101494.39
2019-05-11T14:02:48.871Z,101496.25
2019-05-11T14:05:18.368Z,101510.33
2019-05-11T14:07:48.355Z,101509.88
2019-05-11T14:10:18.251Z,101522.61
2019-05-11T14:12:48.054Z,101528.37
2019-05-11T14:15:19.115Z,101531.73
2019-05-11T14:18:04.416Z,101529.41
2019-05-11T14:20:20.842Z,101538.71
2019-05-11T14:22:50.403Z,101530.96
2019-05-11T14:25:19.816Z,101538.34
2019-05-11T14:27:49.139Z,101540.16
2019-05-11T14:30:19.823Z,101547.12
2019-05-11T14:32:49.193Z,101549.11
2019-05-11T14:35:18.938Z,101559.73
2019-05-11T14:37:48.790Z,101561.20
2019-05-11T14:40:18.195Z,101557.80
2019-05-11T14:42:49.034Z,101561.22
2019-05-11T14:45:18.926Z,101567.64
2019-05-11T14:47:48.480Z,101570.36
2019-05-11T14:50:18.898Z,101578.22
2019-05-11T14:52:49.198Z,101575.27
2019-05-11T14:55:18.880Z,101592.76
2019-05-11T14:57:48.769Z,101587.54
2019-05-11T15:00:18.803Z,101592.00
2019-05-11T15:02:49.531Z,101590.27
2019-05-11T15:05:20.583Z,101604.23
2019-05-11T15:07:52.595Z,101616.34
2019-05-11T15:10:22.507Z,101611.86
2019-05-11T15:12:52.811Z,101608.78
2019-05-11T15:15:22.197Z,101617.58
2019-05-11T15:17:51.546Z,101614.54
2019-05-11T15:20:21.787Z,101625.52
2019-05-11T15:22:51.110Z,101631.88
2019-05-11T15:25:20.448Z,101635.30
2019-05-11T15:27:49.853Z,101643.06
2019-05-11T15:30:21.082Z,101646.00
2019-05-11T15:32:50.413Z,101659.06
2019-05-11T15:35:19.817Z,101655.66
2019-05-11T15:37:49.151Z,101662.67
2019-05-11T15:40:20.277Z,101669.73
2019-05-11T15:42:49.606Z,101666.88
2019-05-11T15:45:19.500Z,101679.86
2019-05-11T15:47:49.776Z,101681.02
2019-05-11T15:50:19.856Z,101684.30
2019-05-11T15:52:49.320Z,101690.05
2019-05-11T15:55:19.861Z,101699.50
2019-05-11T15:57:49.222Z,101699.76
2019-05-11T16:00:18.716Z,101705.08
2019-05-11T16:02:48.942Z,101705.78
2019-05-11T16:05:18.997Z,101703.73
2019-05-11T16:07:49.319Z,101714.09
2019-05-11T16:10:19.331Z,101720.56
2019-05-11T16:12:49.108Z,101728.80
2019-05-11T16:15:19.535Z,101730.27
2019-05-11T16:17:49.727Z,101737.54
2019-05-11T16:20:19.740Z,101737.17
2019-05-11T16:22:49.078Z,101749.38
2019-05-11T16:25:19.657Z,101744.13
2019-05-11T16:27:49.411Z,101750.81
2019-05-11T16:30:21.759Z,101757.95
2019-05-11T16:32:50.523Z,101761.22
2019-05-11T16:35:19.910Z,101775.36
2019-05-11T16:37:49.272Z,101777.13
2019-05-11T16:40:20.729Z,101783.39
2019-05-11T16:42:50.681Z,101787.81
2019-05-11T16:45:23.479Z,101790.93
2019-05-11T16:47:51.408Z,101791.42
2019-05-11T16:50:20.969Z,101799.86
2019-05-11T16:52:50.303Z,101799.05
2019-05-11T16:55:19.635Z,101801.34
2019-05-11T16:57:49.047Z,101804.47
2019-05-11T17:00:19.212Z,101807.56
2019-05-11T17:02:49.208Z,101800.52
2019-05-11T17:05:26.426Z,101808.04
2019-05-11T17:07:50.624Z,101810.70
2019-05-11T17:10:20.087Z,101819.98
2019-05-11T17:12:49.709Z,101829.69
2019-05-11T17:15:19.413Z,101838.09
2019-05-11T17:17:49.940Z,101835.90
2019-05-11T17:20:19.490Z,101849.12
2019-05-11T17:22:49.148Z,101841.62
2019-05-11T17:25:19.454Z,101850.45
2019-05-11T17:27:49.966Z,101858.83
2019-05-11T17:30:20.464Z,101857.09
2019-05-11T17:32:50.234Z,101860.59
2019-05-11T17:35:19.504Z,101870.75
2019-05-11T17:37:49.018Z,101875.11
2019-05-11T17:40:22.831Z,101877.78
2019-05-11T17:42:53.316Z,101886.12
2019-05-11T17:45:20.828Z,101885.24
2019-05-11T17:47:50.167Z,101891.36
2019-05-11T17:50:19.539Z,101895.34
2019-05-11T17:52:49.101Z,101904.55
2019-05-11T17:55:18.808Z,101911.56
2019-05-11T17:57:49.655Z,101912.88
2019-05-11T18:00:22.463Z,101919.46
2019-05-11T18:02:50.685Z,101922.97
2019-05-11T18:05:20.005Z,101935.28
2019-05-11T18:07:49.367Z,101940.05
2019-05-11T18:10:18.832Z,101948.86
2019-05-11T18:12:48.885Z,101940.41
2019-05-11T18:15:18.905Z,101943.05
2019-05-11T18:17:48.921Z,101949.20
2019-05-11T18:20:21.622Z,101960.96
2019-05-11T18:22:49.976Z,101961.41
2019-05-11T18:25:19.579Z,101977.59
2019-05-11T18:27:49.154Z,101983.28
2019-05-11T18:30:18.723Z,101994.24
2019-05-11T18:32:49.036Z,102006.01
2019-05-11T18:35:19.359Z,102005.98
2019-05-11T18:37:50.355Z,102016.45
2019-05-11T18:40:19.774Z,102016.78
2019-05-11T18:42:50.297Z,102027.25
2019-05-11T18:45:19.625Z,102018.34
2019-05-11T18:47:49.478Z,102024.84
2019-05-11T18:50:30.700Z,102028.79
2019-05-11T18:52:51.177Z,102042.33
2019-05-11T18:55:20.770Z,102039.16
2019-05-11T18:57:50.104Z,102045.59
2019-05-11T19:00:20.415Z,102051.20
2019-05-11T19:02:49.983Z,102063.84
2019-05-11T19:05:19.627Z,102069.38
2019-05-11T19:07:48.963Z,102082.94
2019-05-11T19:10:18.601Z,102082.41
2019-05-11T19:12:48.976Z,102090.27
2019-05-11T19:15:19.229Z,102100.14
2019-05-11T19:17:49.741Z,102102.65
2019-05-11T19:20:19.528Z,102110.29
2019-05-11T19:22:48.885Z,102113.59
2019-05-11T19:25:18.546Z,102116.96
2019-05-11T19:27:50.349Z,102114.64
2019-05-11T19:30:18.983Z,102123.64
2019-05-11T19:32:48.787Z,102132.30
2019-05-11T19:35:21.004Z,102130.69
2019-05-11T19:37:49.265Z,102147.33
2019-05-11T19:40:18.608Z,102158.16
2019-05-11T19:42:53.828Z,102161.12
2019-05-11T19:45:23.593Z,102170.60
2019-05-11T19:47:52.992Z,102186.19
2019-05-11T19:50:22.340Z,102195.16
2019-05-11T19:52:51.683Z,102203.75
2019-05-11T19:55:21.000Z,102205.23
2019-05-11T19:57:50.350Z,102218.75
2019-05-11T20:00:19.797Z,102218.14
2019-05-11T20:02:49.396Z,102225.00
2019-05-11T20:05:18.756Z,102222.48
2019-05-11T20:07:49.115Z,102231.09
2019-05-11T20:10:19.077Z,102239.67
2019-05-11T20:12:48.802Z,102242.62
2019-05-11T20:15:18.939Z,102246.90
2019-05-11T20:17:49.159Z,102251.95
2019-05-11T20:20:21.853Z,102257.63
2019-05-11T20:22:51.181Z,102259.19
2019-05-11T20:25:20.545Z,102272.50
2019-05-11T20:27:49.885Z,102279.37
2019-05-11T20:30:19.528Z,102284.43
2019-05-11T20:32:50.553Z,102287.91
2019-05-11T20:35:19.903Z,102293.39
2019-05-11T20:37:49.511Z,102292.39
2019-05-11T20:40:18.940Z,102298.75
2019-05-11T20:42:48.756Z,102299.41
2019-05-11T20:45:18.850Z,102310.95
2019-05-11T20:47:48.960Z,102310.06
2019-05-11T20:50:18.748Z,102315.21
2019-05-11T20:52:48.492Z,102322.42
2019-05-11T20:55:18.372Z,102322.25
2019-05-11T20:57:48.616Z,102334.17
2019-05-11T21:00:19.406Z,102337.47
2019-05-11T21:02:49.217Z,102341.75
2019-05-11T21:05:19.593Z,102347.24
2019-05-11T21:07:48.952Z,102351.39
2019-05-11T21:10:18.411Z,102350.81
2019-05-11T21:12:47.742Z,102357.19
2019-05-11T21:15:18.174Z,102361.25
2019-05-11T21:17:48.200Z,102354.80
2019-05-11T21:20:18.684Z,102358.72
2019-05-11T21:22:48.626Z,102362.89
2019-05-11T21:25:18.398Z,102365.17
2019-05-11T21:27:48.733Z,102378.72
2019-05-11T21:30:18.639Z,102391.27
2019-05-11T21:32:48.027Z,102397.70
2019-05-11T21:35:19.316Z,102405.78
2019-05-11T21:37:48.844Z,102410.59
2019-05-11T21:40:18.517Z,102423.45
2019-05-11T21:42:47.883Z,102416.44
2019-05-11T21:45:18.263Z,102430.72
2019-05-11T21:47:48.995Z,102423.17
2019-05-11T21:50:19.247Z,102437.40
2019-05-11T21:52:48.695Z,102429.39
2019-05-11T21:55:18.021Z,102433.69
2019-05-11T21:57:49.672Z,102432.98
2019-05-11T22:00:19.525Z,102436.24
2019-05-11T22:02:50.862Z,102438.27
2019-05-11T22:05:20.953Z,102447.13
2019-05-11T22:07:50.460Z,102449.88
2019-05-11T22:10:20.354Z,102454.59
2019-05-11T22:12:49.672Z,102454.00
2019-05-11T22:15:19.064Z,102459.86
2019-05-11T22:17:48.383Z,102466.23
2019-05-11T22:20:18.361Z,102463.02
2019-05-11T22:22:47.840Z,102467.18
2019-05-11T22:25:18.304Z,102474.94
2019-05-11T22:27:48.734Z,102477.37
2019-05-11T22:30:19.451Z,102482.47
2019-05-11T22:32:48.807Z,102489.34
2019-05-11T22:35:19.101Z,102493.73
2019-05-11T22:37:49.088Z,102493.27
2019-05-11T22:40:18.715Z,102501.11
2019-05-11T22:42:48.062Z,102502.65
2019-05-11T22:45:18.857Z,102504.07
2019-05-11T22:47:48.324Z,102507.66
2019-05-11T22:50:18.624Z,102511.25
2019-05-11T22:52:48.640Z,102518.59
2019-05-11T22:55:18.918Z,102526.65
2019-05-11T22:57:48.765Z,102531.87
2019-05-11T23:00:21.679Z,102532.80
2019-05-11T23:02:51.037Z,102536.62
2019-05-11T23:05:20.384Z,102531.72
2019-05-11T23:07:49.706Z,102535.63
2019-05-11T23:10:19.381Z,102532.88
2019-05-11T23:12:48.709Z,102544.55
2019-05-11T23:15:19.213Z,102546.82
2019-05-11T23:17:48.674Z,102553.85
2019-05-11T23:20:18.357Z,102556.33
2019-05-11T23:22:56.747Z,102556.03
2019-05-11T23:25:19.038Z,102568.56
2019-05-11T23:27:48.841Z,102566.38
2019-05-11T23:30:19.922Z,102564.08
2019-05-11T23:32:50.068Z,102574.05
2019-05-11T23:35:19.433Z,102580.11
2019-05-11T23:37:49.977Z,102580.44
2019-05-11T23:40:20.213Z,102590.46
2019-05-11T23:42:49.752Z,102596.93
2019-05-11T23:45:19.550Z,102604.41
2019-05-11T23:47:49.242Z,102602.16
2019-05-11T23:50:19.587Z,102608.53
2019-05-11T23:53:05.163Z,102611.20
2019-05-11T23:55:20.059Z,102612.03
2019-05-11T23:57:49.856Z,102621.64
